createdAt,value
2019-05-09T00:00:57.926Z,14.23
2019-05-09T00:03:33.515Z,17.02
2019-05-09T00:06:06.522Z,13.48
2019-05-09T00:08:40.025Z,12.50
2019-05-09T00:11:14.771Z,16.45
2019-05-09T00:13:48.253Z,14.28
2019-05-09T00:16:23.501Z,14.68
2019-05-09T00:18:56.841Z,14.38
2019-05-09T00:21:35.039Z,14.20
2019-05-09T00:24:08.556Z,13.25
2019-05-09T00:26:44.194Z,14.30
2019-05-09T00:29:24.377Z,15.83
2019-05-09T00:32:19.465Z,15.88
2019-05-09T00:35:13.955Z,14.70
2019-05-09T00:37:58.170Z,14.83
2019-05-09T00:40:34.002Z,16.50
2019-05-09T00:43:06.716Z,14.47
2019-05-09T00:46:04.104Z,13.30
2019-05-09T00:49:14.154Z,13.38
2019-05-09T00:51:47.565Z,15.50
2019-05-09T00:54:21.001Z,15.72
2019-05-09T00:56:54.775Z,13.40
2019-05-09T00:59:28.140Z,18.10
2019-05-09T01:02:03.974Z,15.40
2019-05-09T01:04:37.091Z,12.63
2019-05-09T01:07:10.587Z,15.83
2019-05-09T01:09:44.029Z,14.87
2019-05-09T01:12:17.572Z,14.50
2019-05-09T01:14:51.055Z,17.57
2019-05-09T01:17:26.023Z,15.53
2019-05-09T01:20:00.218Z,16.00
2019-05-09T01:22:33.784Z,15.53
2019-05-09T01:25:07.545Z,15.43
2019-05-09T01:27:43.909Z,11.28
2019-05-09T01:30:17.733Z,12.78
2019-05-09T01:33:08.637Z,18.45
2019-05-09T01:35:43.398Z,14.25
2019-05-09T01:38:17.079Z,15.43
2019-05-09T01:40:50.552Z,14.20
2019-05-09T01:43:24.510Z,15.80
2019-05-09T01:45:57.952Z,17.67
2019-05-09T01:48:34.121Z,16.42
2019-05-09T01:51:07.270Z,16.52
2019-05-09T01:53:45.612Z,16.45
2019-05-09T01:56:19.007Z,15.93
2019-05-09T01:58:53.813Z,17.10
2019-05-09T02:01:27.528Z,15.95
2019-05-09T02:04:00.954Z,16.93
2019-05-09T02:06:34.367Z,16.25
2019-05-09T02:09:08.942Z,15.32
2019-05-09T02:11:45.332Z,15.38
2019-05-09T02:14:23.984Z,17.90
2019-05-09T02:17:23.222Z,13.68
2019-05-09T02:19:56.785Z,14.70
2019-05-09T02:22:37.802Z,16.73
2019-05-09T02:25:13.639Z,16.45
2019-05-09T02:27:47.204Z,17.30
2019-05-09T02:30:20.997Z,17.45
2019-05-09T02:32:54.823Z,18.05
2019-05-09T02:35:33.189Z,16.37
2019-05-09T02:38:04.326Z,18.52
2019-05-09T02:40:39.379Z,17.70
2019-05-09T02:43:13.153Z,15.23
2019-05-09T02:46:02.176Z,18.82
2019-05-09T02:48:38.402Z,16.32
2019-05-09T02:51:10.769Z,16.67
2019-05-09T02:53:44.574Z,18.73
2019-05-09T02:56:19.193Z,17.57
2019-05-09T02:59:10.120Z,17.75
2019-05-09T03:01:58.293Z,21.50
2019-05-09T03:04:30.306Z,17.67
2019-05-09T03:07:03.841Z,16.20
2019-05-09T03:09:38.831Z,16.87
2019-05-09T03:12:26.554Z,15.85
2019-05-09T03:14:48.783Z,17.37
2019-05-09T03:17:22.400Z,18.55
2019-05-09T03:19:58.531Z,18.05
2019-05-09T03:22:30.946Z,19.12
2019-05-09T03:25:08.788Z,17.50
2019-05-09T03:27:42.601Z,17.98
2019-05-09T03:30:21.017Z,17.20
2019-05-09T03:32:54.594Z,20.48
2019-05-09T03:35:28.012Z,18.55
2019-05-09T03:38:08.111Z,19.95
2019-05-09T03:40:41.777Z,17.27
2019-05-09T03:43:15.543Z,19.05
2019-05-09T03:45:58.568Z,20.15
2019-05-09T03:48:39.404Z,19.70
2019-05-09T03:51:15.603Z,17.32
2019-05-09T03:53:49.064Z,23.65
2019-05-09T03:56:27.370Z,16.90
2019-05-09T03:59:01.503Z,22.70
2019-05-09T04:01:34.902Z,18.82
2019-05-09T04:04:08.947Z,21.97
2019-05-09T04:06:42.565Z,24.00
2019-05-09T04:09:17.998Z,22.42
2019-05-09T04:11:50.884Z,21.23
2019-05-09T04:14:28.069Z,25.17
2019-05-09T04:17:01.314Z,21.80
2019-05-09T04:19:34.766Z,21.02
2019-05-09T04:22:08.640Z,18.07
2019-05-09T04:24:43.066Z,20.05
2019-05-09T04:27:21.105Z,23.75
2019-05-09T04:29:54.662Z,22.07
2019-05-09T04:32:28.130Z,21.20
2019-05-09T04:35:01.604Z,22.05
2019-05-09T04:37:37.891Z,16.60
2019-05-09T04:40:10.313Z,21.57
2019-05-09T04:42:44.483Z,20.72
2019-05-09T04:45:42.650Z,18.73
2019-05-09T04:48:31.856Z,20.08
2019-05-09T04:51:08.128Z,18.40
2019-05-09T04:53:41.888Z,20.68
2019-05-09T04:56:29.333Z,22.13
2019-05-09T04:59:02.794Z,22.05
2019-05-09T05:01:47.766Z,18.37
2019-05-09T05:04:22.141Z,18.17
2019-05-09T05:06:55.588Z,16.37
2019-05-09T05:09:29.187Z,19.27
2019-05-09T05:12:02.690Z,27.45
2019-05-09T05:14:38.240Z,24.40
2019-05-09T05:17:12.385Z,20.35
2019-05-09T05:19:47.621Z,17.95
2019-05-09T05:22:38.671Z,18.67
2019-05-09T05:25:12.278Z,20.70
2019-05-09T05:27:47.529Z,19.17
2019-05-09T05:30:22.266Z,20.62
2019-05-09T05:32:59.564Z,17.55
2019-05-09T05:35:37.528Z,20.65
2019-05-09T05:38:11.571Z,30.17
2019-05-09T05:40:47.636Z,28.57
2019-05-09T05:43:20.191Z,25.10
2019-05-09T05:46:11.566Z,21.07
2019-05-09T05:48:45.409Z,21.07
2019-05-09T05:51:18.832Z,25.92
2019-05-09T05:53:53.727Z,22.52
2019-05-09T05:56:28.006Z,23.05
2019-05-09T05:59:01.666Z,22.37
2019-05-09T06:01:35.330Z,25.08
2019-05-09T06:04:08.839Z,18.82
2019-05-09T06:06:42.381Z,18.50
2019-05-09T06:09:18.158Z,20.02
2019-05-09T06:11:51.343Z,20.82
2019-05-09T06:14:25.299Z,21.00
2019-05-09T06:16:58.963Z,18.65
2019-05-09T06:19:32.770Z,19.07
2019-05-09T06:22:08.149Z,20.15
2019-05-09T06:24:42.276Z,23.62
2019-05-09T06:27:18.238Z,22.75
2019-05-09T06:29:51.864Z,20.65
2019-05-09T06:32:27.827Z,21.60
2019-05-09T06:35:00.842Z,17.90
2019-05-09T06:37:38.240Z,22.55
2019-05-09T06:40:18.367Z,25.27
2019-05-09T06:42:52.184Z,21.37
2019-05-09T06:45:45.009Z,23.02
2019-05-09T06:48:18.481Z,20.85
2019-05-09T06:50:52.023Z,20.80
2019-05-09T06:53:27.256Z,22.30
2019-05-09T06:56:00.762Z,20.40
2019-05-09T06:58:35.281Z,19.32
2019-05-09T07:01:30.507Z,21.45
2019-05-09T07:04:24.888Z,20.70
2019-05-09T07:07:02.768Z,22.50
2019-05-09T07:09:39.509Z,23.95
2019-05-09T07:12:12.995Z,20.92
2019-05-09T07:14:48.738Z,20.68
2019-05-09T07:17:21.565Z,22.07
2019-05-09T07:19:55.052Z,21.25
2019-05-09T07:22:41.001Z,20.05
2019-05-09T07:25:39.279Z,17.35
2019-05-09T07:28:12.672Z,15.13
2019-05-09T07:31:11.410Z,18.48
2019-05-09T07:33:50.516Z,19.85
2019-05-09T07:36:24.964Z,25.23
2019-05-09T07:38:58.429Z,25.10
2019-05-09T07:41:33.689Z,23.60
2019-05-09T07:44:07.622Z,19.60
2019-05-09T07:47:01.730Z,18.07
2019-05-09T07:49:37.584Z,20.35
2019-05-09T07:52:12.400Z,22.48
2019-05-09T07:54:48.185Z,26.87
2019-05-09T07:57:20.892Z,32.45
2019-05-09T07:59:54.308Z,40.90
2019-05-09T08:02:28.362Z,27.82
2019-05-09T08:05:01.742Z,27.15
2019-05-09T08:07:35.228Z,23.22
2019-05-09T08:10:11.354Z,20.05
2019-05-09T08:12:45.169Z,20.90
2019-05-09T08:15:20.217Z,21.20
2019-05-09T08:17:54.252Z,19.70
2019-05-09T08:20:28.078Z,24.47
2019-05-09T08:23:02.436Z,23.02
2019-05-09T08:25:38.290Z,25.57
2019-05-09T08:28:11.205Z,19.87
2019-05-09T08:30:44.537Z,21.45
2019-05-09T08:33:18.469Z,18.80
2019-05-09T08:35:52.802Z,26.35
2019-05-09T08:38:28.235Z,23.00
2019-05-09T08:41:09.827Z,21.40
2019-05-09T08:43:44.099Z,24.80
2019-05-09T08:46:18.105Z,21.75
2019-05-09T08:48:52.379Z,21.30
2019-05-09T08:52:06.304Z,20.37
2019-05-09T08:54:44.993Z,19.42
2019-05-09T08:57:18.436Z,21.00
2019-05-09T08:59:51.843Z,21.62
2019-05-09T09:02:25.345Z,18.75
2019-05-09T09:04:59.027Z,21.15
2019-05-09T09:07:32.603Z,25.20
2019-05-09T09:10:08.466Z,22.10
2019-05-09T09:12:42.275Z,19.87
2019-05-09T09:15:17.944Z,22.58
2019-05-09T09:17:50.941Z,19.95
2019-05-09T09:20:24.294Z,21.37
2019-05-09T09:22:58.368Z,24.18
2019-05-09T09:25:31.959Z,22.75
2019-05-09T09:28:05.441Z,22.60
2019-05-09T09:30:39.124Z,27.35
2019-05-09T09:33:13.954Z,24.07
2019-05-09T09:35:48.960Z,28.55
2019-05-09T09:38:22.595Z,35.52
2019-05-09T09:40:58.019Z,36.20
2019-05-09T09:43:31.169Z,31.17
2019-05-09T09:46:13.365Z,31.10
2019-05-09T09:48:40.869Z,32.53
2019-05-09T09:51:14.393Z,28.12
2019-05-09T09:53:48.984Z,30.08
2019-05-09T09:56:22.761Z,31.15
2019-05-09T09:59:08.240Z,28.23
2019-05-09T10:01:43.095Z,27.10
2019-05-09T10:04:23.858Z,25.60
2019-05-09T10:06:53.519Z,25.32
2019-05-09T10:09:26.886Z,30.75
2019-05-09T10:12:00.830Z,28.98
2019-05-09T10:14:37.404Z,31.48
2019-05-09T10:17:29.363Z,30.37
2019-05-09T10:20:12.570Z,28.52
2019-05-09T10:22:56.831Z,34.67
2019-05-09T10:25:20.859Z,30.37
2019-05-09T10:27:54.168Z,32.63
2019-05-09T10:30:38.055Z,26.68
2019-05-09T10:33:10.670Z,27.13
2019-05-09T10:35:44.757Z,29.63
2019-05-09T10:38:18.691Z,27.27
2019-05-09T10:41:01.169Z,31.50
2019-05-09T10:43:48.759Z,26.82
2019-05-09T10:46:51.633Z,33.30
2019-05-09T10:49:10.571Z,29.27
2019-05-09T10:51:44.642Z,25.17
2019-05-09T10:54:20.326Z,25.95
2019-05-09T10:56:57.961Z,27.60
2019-05-09T10:59:32.326Z,28.30
2019-05-09T11:02:09.491Z,27.95
2019-05-09T11:04:44.257Z,21.25
2019-05-09T11:07:18.179Z,23.70
2019-05-09T11:09:51.798Z,25.90
2019-05-09T11:12:27.415Z,24.47
2019-05-09T11:15:00.201Z,25.35
2019-05-09T11:17:33.700Z,26.70
2019-05-09T11:20:08.760Z,25.12
2019-05-09T11:22:43.901Z,23.57
2019-05-09T11:25:17.271Z,23.18
2019-05-09T11:28:06.814Z,23.62
2019-05-09T11:30:27.964Z,23.25
2019-05-09T11:33:00.853Z,24.87
2019-05-09T11:35:34.226Z,22.98
2019-05-09T11:38:08.359Z,21.42
2019-05-09T11:40:42.042Z,24.52
2019-05-09T11:43:17.939Z,23.75
2019-05-09T11:45:51.482Z,20.97
2019-05-09T11:48:24.990Z,22.00
2019-05-09T11:50:59.036Z,24.65
2019-05-09T11:53:33.441Z,24.18
2019-05-09T11:56:08.242Z,23.47
2019-05-09T11:58:41.779Z,20.95
2019-05-09T12:01:15.207Z,28.80
2019-05-09T12:03:52.082Z,29.48
2019-05-09T12:06:23.418Z,27.22
2019-05-09T12:08:58.808Z,24.82
2019-05-09T12:11:31.787Z,20.88
2019-05-09T12:14:08.724Z,20.00
2019-05-09T12:16:41.011Z,19.30
2019-05-09T12:19:14.407Z,21.07
2019-05-09T12:21:48.574Z,18.50
2019-05-09T12:24:22.159Z,17.07
2019-05-09T12:26:57.544Z,20.30
2019-05-09T12:29:30.428Z,19.60
2019-05-09T12:32:03.865Z,15.85
2019-05-09T12:34:37.258Z,18.60
2019-05-09T12:37:10.705Z,18.60
2019-05-09T12:39:44.121Z,21.27
2019-05-09T12:42:18.555Z,13.68
2019-05-09T12:44:52.381Z,15.75
2019-05-09T12:47:28.873Z,20.23
2019-05-09T12:50:10.744Z,21.68
2019-05-09T12:52:44.129Z,21.48
2019-05-09T12:55:17.989Z,21.57
2019-05-09T12:57:52.227Z,19.40
2019-05-09T13:00:25.687Z,20.23
2019-05-09T13:02:59.507Z,23.92
2019-05-09T13:05:33.293Z,25.48
2019-05-09T13:08:10.244Z,22.00
2019-05-09T13:10:42.220Z,19.55
2019-05-09T13:13:18.394Z,18.10
2019-05-09T13:16:14.293Z,14.58
2019-05-09T13:19:07.726Z,18.57
2019-05-09T13:21:41.228Z,18.87
2019-05-09T13:24:19.515Z,18.27
2019-05-09T13:26:51.935Z,16.75
2019-05-09T13:29:25.734Z,16.52
2019-05-09T13:31:59.116Z,21.20
2019-05-09T13:34:32.638Z,19.48
2019-05-09T13:37:08.834Z,17.70
2019-05-09T13:39:41.265Z,21.95
2019-05-09T13:42:14.908Z,17.77
2019-05-09T13:44:48.436Z,17.40
2019-05-09T13:47:21.922Z,18.57
2019-05-09T13:49:56.065Z,18.23
2019-05-09T13:52:29.996Z,16.00
2019-05-09T13:55:03.513Z,15.93
2019-05-09T13:57:39.756Z,20.08
2019-05-09T14:00:18.479Z,18.30
2019-05-09T14:02:51.987Z,18.02
2019-05-09T14:05:25.707Z,16.70
2019-05-09T14:08:03.381Z,18.60
2019-05-09T14:10:38.703Z,18.52
2019-05-09T14:13:14.029Z,16.02
2019-05-09T14:15:48.909Z,16.57
2019-05-09T14:18:23.754Z,23.70
2019-05-09T14:20:57.493Z,22.42
2019-05-09T14:23:35.710Z,17.37
2019-05-09T14:26:09.125Z,19.35
2019-05-09T14:28:42.003Z,18.23
2019-05-09T14:31:18.382Z,16.97
2019-05-09T14:33:51.391Z,16.65
2019-05-09T14:36:24.509Z,18.17
2019-05-09T14:38:58.161Z,16.23
2019-05-09T14:41:31.373Z,18.32
2019-05-09T14:44:04.627Z,20.20
2019-05-09T14:46:39.221Z,19.12
2019-05-09T14:49:12.546Z,15.98
2019-05-09T14:51:45.781Z,19.42
2019-05-09T14:54:19.029Z,18.90
2019-05-09T14:56:53.075Z,21.27
2019-05-09T14:59:28.662Z,17.45
2019-05-09T15:02:01.359Z,17.65
2019-05-09T15:04:34.582Z,18.90
2019-05-09T15:07:07.932Z,20.75
2019-05-09T15:09:41.318Z,19.98
2019-05-09T15:12:14.699Z,19.77
2019-05-09T15:14:48.161Z,19.77
2019-05-09T15:17:21.517Z,19.98
2019-05-09T15:19:59.652Z,19.62
2019-05-09T15:22:30.013Z,21.27
2019-05-09T15:25:03.670Z,20.88
2019-05-09T15:27:38.559Z,24.45
2019-05-09T15:30:12.610Z,30.92
2019-05-09T15:32:47.416Z,23.90
2019-05-09T15:35:21.228Z,20.43
2019-05-09T15:37:55.693Z,20.23
2019-05-09T15:40:29.183Z,17.12
2019-05-09T15:43:02.664Z,31.48
2019-05-09T15:45:42.832Z,28.42
2019-05-09T15:48:18.126Z,27.62
2019-05-09T15:50:51.276Z,23.62
2019-05-09T15:53:24.670Z,24.80
2019-05-09T15:55:58.768Z,23.10
2019-05-09T15:58:32.474Z,27.48
2019-05-09T16:01:08.222Z,25.23
2019-05-09T16:03:41.551Z,22.90
2019-05-09T16:06:14.928Z,23.20
2019-05-09T16:08:48.315Z,20.85
2019-05-09T16:11:21.676Z,19.48
2019-05-09T16:13:55.245Z,25.20
2019-05-09T16:16:28.820Z,24.05
2019-05-09T16:19:03.247Z,25.90
2019-05-09T16:21:38.271Z,20.90
2019-05-09T16:24:52.490Z,18.30
2019-05-09T16:27:25.860Z,19.40
2019-05-09T16:29:59.367Z,21.82
2019-05-09T16:32:32.682Z,23.02
2019-05-09T16:35:30.423Z,22.95
2019-05-09T16:38:07.922Z,25.23
2019-05-09T16:40:38.976Z,24.90
2019-05-09T16:43:13.900Z,25.23
2019-05-09T16:45:47.810Z,23.67
2019-05-09T16:48:21.486Z,22.67
2019-05-09T16:51:03.189Z,29.72
2019-05-09T16:53:30.052Z,30.85
2019-05-09T16:56:03.902Z,27.52
2019-05-09T16:58:39.219Z,40.67
2019-05-09T17:01:14.967Z,33.83
2019-05-09T17:03:49.171Z,23.52
2019-05-09T17:06:22.789Z,57.38
2019-05-09T17:08:58.500Z,53.00
2019-05-09T17:11:31.982Z,48.52
2019-05-09T17:14:07.976Z,57.53
2019-05-09T17:16:40.424Z,64.82
2019-05-09T17:19:13.961Z,38.17
2019-05-09T17:21:58.801Z,45.95
2019-05-09T17:24:32.187Z,34.18
2019-05-09T17:27:05.523Z,39.88
2019-05-09T17:29:38.610Z,35.35
2019-05-09T17:32:11.866Z,31.87
2019-05-09T17:34:47.476Z,35.28
2019-05-09T17:37:20.111Z,32.05
2019-05-09T17:39:53.462Z,33.02
2019-05-09T17:42:27.725Z,32.28
2019-05-09T17:45:02.345Z,26.95
2019-05-09T17:47:37.747Z,23.73
2019-05-09T17:50:11.365Z,28.25
2019-05-09T17:52:44.858Z,29.52
2019-05-09T17:55:18.430Z,30.27
2019-05-09T17:57:52.335Z,27.98
2019-05-09T18:00:28.007Z,29.50
2019-05-09T18:03:02.691Z,35.40
2019-05-09T18:05:38.840Z,40.65
2019-05-09T18:08:11.744Z,44.00
2019-05-09T18:10:45.282Z,44.67
2019-05-09T18:13:23.782Z,42.67
2019-05-09T18:15:53.703Z,41.85
2019-05-09T18:18:28.418Z,47.73
2019-05-09T18:21:01.999Z,43.33
2019-05-09T18:23:35.381Z,49.60
2019-05-09T18:26:10.755Z,53.63
2019-05-09T18:28:44.164Z,53.60
2019-05-09T18:31:17.456Z,49.55
2019-05-09T18:33:55.368Z,55.12
2019-05-09T18:36:28.756Z,64.55
2019-05-09T18:39:02.232Z,65.75
2019-05-09T18:41:36.860Z,63.73
2019-05-09T18:44:10.570Z,63.42
2019-05-09T18:46:44.078Z,72.08
2019-05-09T18:49:20.951Z,89.10
2019-05-09T18:52:03.778Z,92.90
2019-05-09T18:54:32.561Z,97.22
2019-05-09T18:57:05.926Z,105.00
2019-05-09T18:59:40.005Z,92.65
2019-05-09T19:02:21.319Z,99.58
2019-05-09T19:04:55.663Z,93.27
2019-05-09T19:07:29.516Z,90.70
2019-05-09T19:10:03.124Z,74.53
2019-05-09T19:12:37.794Z,90.28
2019-05-09T19:15:16.272Z,96.55
2019-05-09T19:18:11.987Z,97.80
2019-05-09T19:21:07.707Z,114.45
2019-05-09T19:23:40.820Z,134.95
2019-05-09T19:26:32.126Z,171.37
2019-05-09T19:29:13.063Z,180.78
2019-05-09T19:31:46.273Z,156.20
2019-05-09T19:34:19.424Z,157.62
2019-05-09T19:36:52.572Z,138.03
2019-05-09T19:39:25.975Z,138.90
2019-05-09T19:41:59.196Z,131.45
2019-05-09T19:44:32.233Z,130.32
2019-05-09T19:47:05.361Z,103.67
2019-05-09T19:49:38.446Z,85.17
2019-05-09T19:52:11.580Z,83.72
2019-05-09T19:54:45.908Z,93.10
2019-05-09T19:57:20.298Z,93.03
2019-05-09T19:59:53.432Z,83.22
2019-05-09T20:02:26.505Z,73.83
2019-05-09T20:04:59.646Z,81.47
2019-05-09T20:07:32.973Z,92.33
2019-05-09T20:10:23.865Z,89.65
2019-05-09T20:13:15.821Z,85.38
2019-05-09T20:15:49.033Z,89.40
2019-05-09T20:18:22.248Z,83.20
2019-05-09T20:20:55.470Z,82.35
2019-05-09T20:23:28.512Z,87.53
2019-05-09T20:26:01.712Z,82.57
2019-05-09T20:28:34.791Z,103.40
2019-05-09T20:31:07.903Z,104.07
2019-05-09T20:33:41.249Z,115.85
2019-05-09T20:36:14.416Z,134.65
2019-05-09T20:38:48.070Z,129.18
2019-05-09T20:41:21.492Z,126.27
2019-05-09T20:43:54.828Z,124.53
2019-05-09T20:46:28.361Z,119.93
2019-05-09T20:49:01.994Z,118.02
2019-05-09T20:51:35.472Z,114.17
2019-05-09T20:54:20.458Z,106.32
2019-05-09T20:56:49.854Z,93.17
2019-05-09T20:59:26.313Z,76.40
2019-05-09T21:02:02.106Z,81.10
2019-05-09T21:04:35.851Z,82.97
2019-05-09T21:07:09.494Z,84.60
2019-05-09T21:09:43.177Z,94.00
2019-05-09T21:12:18.629Z,80.62
2019-05-09T21:14:55.568Z,85.95
2019-05-09T21:17:30.601Z,76.35
2019-05-09T21:20:05.102Z,79.40
2019-05-09T21:22:44.365Z,95.17
2019-05-09T21:25:19.052Z,80.75
2019-05-09T21:27:52.928Z,74.62
2019-05-09T21:30:26.933Z,71.90
2019-05-09T21:33:00.849Z,75.32
2019-05-09T21:35:35.001Z,84.32
2019-05-09T21:38:09.267Z,102.78
2019-05-09T21:40:43.873Z,107.00
2019-05-09T21:43:17.362Z,125.42
2019-05-09T21:45:51.102Z,131.52
2019-05-09T21:48:27.483Z,152.22
2019-05-09T21:51:01.772Z,151.70
2019-05-09T21:53:41.081Z,148.28
2019-05-09T21:56:11.399Z,141.32
2019-05-09T21:58:44.852Z,125.22
2019-05-09T22:01:20.597Z,118.20
2019-05-09T22:03:55.193Z,101.40
2019-05-09T22:06:28.578Z,96.87
2019-05-09T22:09:01.920Z,81.05
2019-05-09T22:11:35.427Z,74.50
2019-05-09T22:14:08.898Z,72.58
2019-05-09T22:16:43.034Z,65.45
2019-05-09T22:19:16.401Z,58.83
2019-05-09T22:21:49.885Z,73.33
2019-05-09T22:24:23.278Z,82.75
2019-05-09T22:26:56.662Z,110.15
2019-05-09T22:29:30.089Z,109.37
2019-05-09T22:32:03.487Z,273.30
2019-05-09T22:34:36.912Z,161.97
2019-05-09T22:37:10.403Z,92.35
2019-05-09T22:39:43.879Z,73.25
2019-05-09T22:42:18.076Z,75.00
2019-05-09T22:44:51.539Z,61.83
2019-05-09T22:47:25.947Z,63.45
2019-05-09T22:49:59.418Z,58.17
2019-05-09T22:52:32.964Z,55.15
2019-05-09T22:55:07.560Z,47.53
2019-05-09T22:57:41.097Z,47.65
2019-05-09T23:00:14.865Z,45.12
2019-05-09T23:02:50.932Z,49.73
2019-05-09T23:05:25.996Z,45.75
2019-05-09T23:07:59.491Z,43.17
2019-05-09T23:10:33.332Z,45.05
2019-05-09T23:13:07.149Z,42.53
2019-05-09T23:15:40.641Z,38.00
2019-05-09T23:18:14.177Z,40.25
2019-05-09T23:20:53.422Z,41.42
2019-05-09T23:23:39.277Z,47.35
2019-05-09T23:26:15.649Z,40.43
2019-05-09T23:28:49.144Z,40.70
2019-05-09T23:31:36.549Z,38.83
2019-05-09T23:34:15.054Z,34.83
2019-05-09T23:36:49.048Z,32.95
2019-05-09T23:39:24.975Z,35.58
2019-05-09T23:41:58.510Z,33.65
2019-05-09T23:44:32.037Z,32.42
2019-05-09T23:47:06.553Z,31.87
2019-05-09T23:49:40.723Z,32.50
2019-05-09T23:52:14.338Z,27.48
2019-05-09T23:58:36.163Z,26.25
